Time;durP1;ratioP1;P1;durP2;ratioP2;P2;SDS_P1;SDS_P2;PMS_P1;PMS_P2;Temp;Humidity;BMP_temperature;BMP_pressure;BME280_temperature;BME280_humidity;BME280_pressure;Samples;Min_cycle;Max_cycle;Signal;HPM_P1;HPM_P2
2022/09/05 00:02:34;;;;;;;0.70;0.70;;;29.70;59.20;;;;;;5042747;28;20446;-66
2022/09/05 00:05:39;;;;;;;0.60;0.60;;;29.80;59.10;;;;;;5042875;28;20601;-65
2022/09/05 00:08:38;;;;;;;0.50;0.50;;;29.70;59.40;;;;;;5040349;28;20454;-65
2022/09/05 00:11:18;;;;;;;0.63;0.63;;;29.70;60.80;;;;;;5042560;28;20845;-66
2022/09/05 00:14:37;;;;;;;0.73;0.73;;;29.60;60.70;;;;;;5042455;28;20447;-65
2022/09/05 00:17:40;;;;;;;0.97;0.80;;;29.60;59.40;;;;;;5042463;28;20497;-66
2022/09/05 00:20:39;;;;;;;1.27;0.67;;;29.70;59.70;;;;;;5042492;28;20446;-65
2022/09/05 00:23:41;;;;;;;0.63;0.63;;;29.70;60.80;;;;;;5042402;28;20448;-66
2022/09/05 00:26:45;;;;;;;0.70;0.60;;;29.60;59.10;;;;;;5062155;28;20501;-66
2022/09/05 00:29:32;;;;;;;2.13;1.00;;;29.50;61.00;;;;;;5084631;28;20440;-66
2022/09/05 00:32:35;;;;;;;0.60;0.60;;;29.50;62.50;;;;;;5084393;28;20502;-66
2022/09/05 00:35:26;;;;;;;1.10;1.00;;;29.50;60.40;;;;;;5084593;28;20460;-66
2022/09/05 00:37:57;;;;;;;1.47;0.70;;;29.40;60.90;;;;;;5082506;28;20450;-65
2022/09/05 00:40:33;;;;;;;0.90;0.90;;;29.40;60.20;;;;;;5084748;28;20554;-66
2022/09/05 00:43:08;;;;;;;0.70;0.70;;;29.30;62.10;;;;;;5083982;28;20482;-66
2022/09/05 00:45:43;;;;;;;0.80;0.80;;;29.30;62.50;;;;;;5084317;28;20948;-66
2022/09/05 00:48:24;;;;;;;0.87;0.80;;;29.30;63.00;;;;;;5084136;28;20448;-66
2022/09/05 00:51:13;;;;;;;1.10;0.60;;;29.30;62.50;;;;;;5083792;28;20450;-66
2022/09/05 00:53:54;;;;;;;1.00;0.90;;;29.30;60.30;;;;;;5084036;28;20450;-66
2022/09/05 00:56:54;;;;;;;0.73;0.70;;;29.20;63.10;;;;;;5084100;28;20431;-66
2022/09/05 01:00:00;;;;;;;0.87;0.87;;;29.20;61.70;;;;;;5083955;28;20506;-66
2022/09/05 01:02:53;;;;;;;0.90;0.90;;;29.00;62.50;;;;;;5083805;28;20449;-66
2022/09/05 01:05:41;;;;;;;0.73;0.73;;;28.90;64.30;;;;;;5082846;28;20446;-66
2022/09/05 01:08:31;;;;;;;0.93;0.93;;;28.90;64.30;;;;;;5084252;28;20437;-66
2022/09/05 01:11:11;;;;;;;0.70;0.70;;;28.80;63.80;;;;;;5084169;28;20434;-65
2022/09/05 01:13:48;;;;;;;1.10;1.00;;;28.70;64.20;;;;;;5083798;28;20856;-66
2022/09/05 01:16:24;;;;;;;1.33;1.23;;;28.60;64.40;;;;;;5083818;28;20791;-66
2022/09/05 01:19:06;;;;;;;1.30;1.20;;;28.50;68.20;;;;;;5083672;28;20450;-66
2022/09/05 01:22:00;;;;;;;1.40;1.30;;;28.40;71.30;;;;;;5083105;28;20439;-66
2022/09/05 01:25:09;;;;;;;1.30;1.00;;;28.30;74.00;;;;;;5083669;28;20444;-66
2022/09/05 01:28:04;;;;;;;1.60;1.50;;;28.00;76.20;;;;;;5041072;28;20501;-66
2022/09/05 01:31:03;;;;;;;1.63;1.30;;;27.80;76.80;;;;;;5040920;28;20464;-66
2022/09/05 01:33:47;;;;;;;1.20;1.10;;;27.40;78.30;;;;;;5041165;28;20483;-66
2022/09/05 01:36:30;;;;;;;1.20;1.10;;;27.00;80.20;;;;;;5040337;28;20453;-65
2022/09/05 01:39:08;;;;;;;1.10;1.00;;;26.90;82.20;;;;;;5040969;28;20470;-66
2022/09/05 01:42:07;;;;;;;2.27;1.20;;;26.80;83.30;;;;;;5040851;28;20967;-65
2022/09/05 01:44:55;;;;;;;1.10;1.00;;;26.50;85.00;;;;;;5040742;28;20478;-66
2022/09/05 01:47:43;;;;;;;1.30;1.20;;;26.40;86.20;;;;;;5040598;28;20498;-65
2022/09/05 01:50:33;;;;;;;1.40;1.30;;;26.20;88.00;;;;;;5040730;28;20570;-65
2022/09/05 01:53:25;;;;;;;1.00;0.87;;;26.00;89.60;;;;;;5040100;28;20761;-65
2022/09/05 01:56:23;;;;;;;1.53;1.23;;;25.90;90.30;;;;;;5040625;28;20462;-65
2022/09/05 01:59:06;;;;;;;1.30;1.20;;;25.80;91.00;;;;;;5036715;28;20465;-65
2022/09/05 02:01:56;;;;;;;1.10;1.00;;;25.70;91.70;;;;;;5040554;28;20451;-65
2022/09/05 02:04:56;;;;;;;1.30;1.20;;;25.50;92.40;;;;;;5082267;28;20449;-65
2022/09/05 02:07:48;;;;;;;1.53;1.40;;;25.20;93.30;;;;;;5079737;28;20499;-65
2022/09/05 02:10:58;;;;;;;2.17;1.30;;;25.10;94.10;;;;;;5082581;28;20443;-65
2022/09/05 02:13:43;;;;;;;1.10;1.00;;;24.90;94.90;;;;;;5072878;28;20452;-65
2022/09/05 02:16:22;;;;;;;1.33;0.90;;;24.70;95.80;;;;;;5082791;28;20448;-65
2022/09/05 02:19:01;;;;;;;1.27;1.17;;;24.60;96.70;;;;;;5083132;28;20497;-65
2022/09/05 02:21:40;;;;;;;1.60;1.10;;;24.50;97.60;;;;;;5082302;28;20447;-65
2022/09/05 02:24:35;;;;;;;0.77;0.70;;;24.40;98.40;;;;;;5083037;28;20514;-65
2022/09/05 02:27:23;;;;;;;2.10;1.20;;;24.30;99.30;;;;;;5083100;28;20501;-65
2022/09/05 02:30:18;;;;;;;0.83;0.77;;;24.20;99.90;;;;;;5082942;28;20439;-65
2022/09/05 02:33:13;;;;;;;1.20;1.10;;;24.00;99.90;;;;;;5082821;28;20442;-65
2022/09/05 02:35:54;;;;;;;0.90;0.60;;;23.80;99.90;;;;;;5082603;28;20440;-65
2022/09/05 02:38:33;;;;;;;2.17;1.00;;;23.70;99.90;;;;;;5082767;28;20451;-65
2022/09/05 02:41:33;;;;;;;1.23;1.03;;;23.70;99.90;;;;;;5082499;28;20477;-65
2022/09/05 02:44:31;;;;;;;1.33;0.90;;;23.60;99.90;;;;;;5082243;28;20570;-65
2022/09/05 02:47:27;;;;;;;0.70;0.50;;;23.50;99.90;;;;;;5082348;28;20495;-65
2022/09/05 02:50:18;;;;;;;0.73;0.73;;;23.40;99.90;;;;;;5082611;28;20458;-65
2022/09/05 02:53:13;;;;;;;0.63;0.63;;;23.30;99.90;;;;;;5082402;28;20439;-65
2022/09/05 02:56:29;;;;;;;1.70;0.73;;;23.20;99.90;;;;;;5082663;28;20517;-65
2022/09/05 02:59:39;;;;;;;0.90;0.83;;;23.20;99.90;;;;;;5083736;28;20451;-65
2022/09/05 03:02:18;;;;;;;0.50;0.40;;;23.10;99.90;;;;;;5085806;28;20457;-65
2022/09/05 03:05:01;;;;;;;0.50;0.50;;;22.90;99.90;;;;;;5086188;28;20470;-65
2022/09/05 03:08:01;;;;;;;0.70;0.50;;;22.90;99.90;;;;;;5085631;28;20492;-66
2022/09/05 03:11:10;;;;;;;0.50;0.40;;;22.90;99.90;;;;;;5085993;28;20769;-66
2022/09/05 03:14:13;;;;;;;1.00;0.50;;;22.80;99.90;;;;;;5085640;28;20551;-66
2022/09/05 03:17:17;;;;;;;0.60;0.50;;;22.70;99.90;;;;;;5052433;28;20577;-65
2022/09/05 03:20:16;;;;;;;0.67;0.57;;;22.60;99.90;;;;;;5086013;28;20447;-66
2022/09/05 03:23:33;;;;;;;0.70;0.47;;;22.50;99.90;;;;;;5085039;28;20453;-65
2022/09/05 03:26:49;;;;;;;0.80;0.40;;;22.40;99.90;;;;;;5088207;28;20470;-65
2022/09/05 03:30:02;;;;;;;0.43;0.23;;;22.30;99.90;;;;;;5121759;28;20458;-66
2022/09/05 03:33:24;;;;;;;0.40;0.30;;;22.20;99.90;;;;;;5110801;28;20500;-65
2022/09/05 03:36:28;;;;;;;0.50;0.30;;;22.10;99.90;;;;;;5110771;28;20489;-67
2022/09/05 03:39:31;;;;;;;0.50;0.30;;;22.10;99.90;;;;;;5114071;28;20459;-66
2022/09/05 03:42:32;;;;;;;0.57;0.37;;;22.10;99.90;;;;;;5110132;28;20470;-66
2022/09/05 03:45:37;;;;;;;0.60;0.47;;;22.00;99.90;;;;;;5107380;28;20592;-66
2022/09/05 03:48:35;;;;;;;0.50;0.50;;;21.90;99.90;;;;;;5123283;28;20497;-66
2022/09/05 03:51:29;;;;;;;0.53;0.50;;;21.80;99.90;;;;;;5089570;28;20524;-67
2022/09/05 03:54:59;;;;;;;0.30;0.20;;;21.70;99.90;;;;;;5095451;28;20437;-67
2022/09/05 03:58:21;;;;;;;0.50;0.40;;;21.60;99.90;;;;;;5106502;28;20442;-66
2022/09/05 04:01:18;;;;;;;0.90;0.37;;;21.50;99.90;;;;;;5090599;28;20459;-67
2022/09/05 04:04:21;;;;;;;0.50;0.40;;;21.40;99.90;;;;;;5115852;28;20527;-65
2022/09/05 04:07:20;;;;;;;0.60;0.50;;;21.30;99.90;;;;;;5107154;28;20458;-66
2022/09/05 04:10:23;;;;;;;0.60;0.60;;;21.00;99.90;;;;;;5108880;28;20451;-66
2022/09/05 04:12:59;;;;;;;0.87;0.50;;;20.90;99.90;;;;;;5100697;28;20929;-67
2022/09/05 04:15:37;;;;;;;0.83;0.67;;;20.90;99.90;;;;;;5102082;28;20953;-65
2022/09/05 04:18:25;;;;;;;0.60;0.50;;;20.90;99.90;;;;;;5122253;28;20456;-65
2022/09/05 04:21:09;;;;;;;0.50;0.50;;;20.90;99.90;;;;;;5100045;28;20515;-63
2022/09/05 04:23:53;;;;;;;1.50;0.80;;;20.80;99.90;;;;;;5120302;27;20467;-65
2022/09/05 04:26:54;;;;;;;0.60;0.50;;;20.70;99.90;;;;;;5122330;28;20421;-67
2022/09/05 04:29:35;;;;;;;0.47;0.40;;;20.70;99.90;;;;;;5098204;28;20482;-65
2022/09/05 04:32:22;;;;;;;0.40;0.30;;;20.60;99.90;;;;;;5113142;28;20425;-65
2022/09/05 04:35:07;;;;;;;0.77;0.77;;;20.50;99.90;;;;;;5099064;28;20488;-67
2022/09/05 04:37:45;;;;;;;0.50;0.30;;;20.40;99.90;;;;;;5113312;28;20489;-67
2022/09/05 04:40:38;;;;;;;0.40;0.40;;;20.40;99.90;;;;;;5106396;28;20440;-66
2022/09/05 04:43:14;;;;;;;0.80;0.70;;;20.30;99.90;;;;;;5109923;28;20497;-67
2022/09/05 04:45:52;;;;;;;0.40;0.33;;;20.30;99.90;;;;;;5107069;28;20494;-66
2022/09/05 04:48:28;;;;;;;0.50;0.47;;;20.20;99.90;;;;;;5115599;28;20449;-66
2022/09/05 04:51:09;;;;;;;0.43;0.43;;;20.20;99.90;;;;;;5092118;28;20468;-66
2022/09/05 04:54:09;;;;;;;0.53;0.50;;;20.30;99.90;;;;;;5102712;28;20446;-66
2022/09/05 04:56:46;;;;;;;1.07;0.57;;;20.10;99.90;;;;;;5117383;28;20486;-66
2022/09/05 04:59:21;;;;;;;0.70;0.63;;;20.20;99.90;;;;;;5104585;28;20443;-66
2022/09/05 05:02:21;;;;;;;0.80;0.67;;;20.10;99.90;;;;;;5118359;28;20449;-66
2022/09/05 05:05:21;;;;;;;0.60;0.40;;;20.00;99.90;;;;;;5120699;28;20475;-66
2022/09/05 05:08:19;;;;;;;1.63;0.77;;;19.90;99.90;;;;;;5117817;28;20493;-66
2022/09/05 05:11:13;;;;;;;0.77;0.60;;;19.90;99.90;;;;;;5090182;28;20430;-66
2022/09/05 05:14:10;;;;;;;0.97;0.87;;;19.80;99.90;;;;;;5100412;28;20516;-66
2022/09/05 05:17:07;;;;;;;0.63;0.63;;;19.80;99.90;;;;;;5123334;28;20442;-66
2022/09/05 05:20:05;;;;;;;0.63;0.40;;;19.80;99.90;;;;;;5113318;28;20469;-66
2022/09/05 05:23:03;;;;;;;0.60;0.60;;;19.80;99.90;;;;;;5112409;28;20462;-66
2022/09/05 05:25:48;;;;;;;0.60;0.57;;;19.90;99.90;;;;;;5100823;28;20465;-66
2022/09/05 05:28:26;;;;;;;0.53;0.50;;;19.80;99.90;;;;;;5098014;28;21010;-67
2022/09/05 05:31:08;;;;;;;0.60;0.60;;;19.70;99.90;;;;;;5101706;28;20944;-66
2022/09/05 05:33:41;;;;;;;2.17;0.63;;;19.70;99.90;;;;;;5093284;28;20457;-66
2022/09/05 05:36:21;;;;;;;0.70;0.60;;;19.80;99.90;;;;;;5108804;28;20459;-67
2022/09/05 05:38:59;;;;;;;0.50;0.43;;;19.80;99.90;;;;;;5108898;28;20454;-66
2022/09/05 05:41:38;;;;;;;0.87;0.50;;;19.70;99.90;;;;;;5102592;28;20417;-66
2022/09/05 05:44:17;;;;;;;0.80;0.60;;;19.70;99.90;;;;;;5123173;28;20535;-66
2022/09/05 05:46:56;;;;;;;0.50;0.40;;;19.70;99.90;;;;;;5123659;28;20423;-67
2022/09/05 05:49:43;;;;;;;1.80;0.63;;;19.70;99.90;;;;;;5101538;28;20488;-67
2022/09/05 05:52:35;;;;;;;0.60;0.60;;;19.70;99.90;;;;;;5120734;28;20420;-66
2022/09/05 05:55:31;;;;;;;1.37;0.90;;;19.80;99.90;;;;;;5109412;28;20436;-66
2022/09/05 05:58:52;;;;;;;0.50;0.50;;;19.80;99.90;;;;;;5104075;28;20529;-67
2022/09/05 06:02:08;;;;;;;0.80;0.80;;;19.80;99.90;;;;;;5105619;28;20468;-66
2022/09/05 06:05:08;;;;;;;1.10;0.83;;;19.80;99.90;;;;;;5097705;28;20461;-67
2022/09/05 06:07:52;;;;;;;1.10;0.60;;;19.80;99.90;;;;;;5102686;28;20816;-66
2022/09/05 06:11:13;;;;;;;0.67;0.67;;;19.90;99.90;;;;;;5114423;28;20412;-66
2022/09/05 06:14:32;;;;;;;0.50;0.30;;;19.90;99.90;;;;;;5093276;28;20494;-66
2022/09/05 06:17:57;;;;;;;0.73;0.43;;;20.00;99.90;;;;;;5103278;28;20555;-66
2022/09/05 06:20:56;;;;;;;0.70;0.60;;;19.90;99.90;;;;;;5101705;28;20476;-67
2022/09/05 06:24:21;;;;;;;0.60;0.50;;;20.00;99.90;;;;;;5107869;28;20561;-67
2022/09/05 06:27:25;;;;;;;0.80;0.80;;;20.10;99.90;;;;;;5108159;28;20477;-67
2022/09/05 06:30:02;;;;;;;0.83;0.30;;;20.00;99.90;;;;;;5087219;28;20551;-66
2022/09/05 06:32:47;;;;;;;0.60;0.60;;;20.00;99.90;;;;;;5107746;28;20535;-67
2022/09/05 06:35:36;;;;;;;0.80;0.70;;;19.90;99.90;;;;;;5099455;28;20469;-66
2022/09/05 06:38:31;;;;;;;0.50;0.50;;;19.80;99.90;;;;;;5107355;28;20573;-66
2022/09/05 06:41:21;;;;;;;0.53;0.53;;;19.80;99.90;;;;;;5105857;28;20467;-66
2022/09/05 06:44:32;;;;;;;0.73;0.57;;;19.60;99.90;;;;;;5099655;28;20482;-66
2022/09/05 06:47:07;;;;;;;0.90;0.80;;;19.50;99.90;;;;;;5104079;28;20462;-66
2022/09/05 06:50:10;;;;;;;0.50;0.50;;;19.40;99.90;;;;;;5120169;28;20456;-66
2022/09/05 06:53:40;;;;;;;0.70;0.50;;;19.40;99.90;;;;;;5109292;28;20424;-67
2022/09/05 06:56:23;;;;;;;0.70;0.50;;;19.30;99.90;;;;;;5126160;28;20456;-66
2022/09/05 06:59:34;;;;;;;1.30;0.80;;;19.10;99.90;;;;;;5097009;28;20445;-67
2022/09/05 07:02:18;;;;;;;0.60;0.60;;;19.00;99.90;;;;;;5117467;28;20443;-67
2022/09/05 07:05:31;;;;;;;0.60;0.53;;;18.80;99.90;;;;;;5099027;28;20423;-67
2022/09/05 07:08:25;;;;;;;0.60;0.50;;;18.80;99.90;;;;;;5113245;28;20447;-67
2022/09/05 07:11:14;;;;;;;0.60;0.60;;;18.70;99.90;;;;;;5099230;28;20489;-66
2022/09/05 07:14:00;;;;;;;0.60;0.60;;;18.60;99.90;;;;;;5114887;28;20465;-66
2022/09/05 07:16:48;;;;;;;0.57;0.57;;;18.60;99.90;;;;;;5116104;28;20432;-66
2022/09/05 07:19:26;;;;;;;0.40;0.33;;;18.60;99.90;;;;;;5113115;28;20910;-66
2022/09/05 07:22:17;;;;;;;0.50;0.50;;;18.60;99.90;;;;;;5121666;28;20938;-66
2022/09/05 07:25:10;;;;;;;0.70;0.50;;;18.50;99.90;;;;;;5105965;28;20428;-66
2022/09/05 07:27:52;;;;;;;0.70;0.50;;;18.50;99.90;;;;;;5106488;28;20585;-67
2022/09/05 07:30:48;;;;;;;1.50;0.80;;;18.40;99.90;;;;;;5097974;28;20485;-67
2022/09/05 07:33:21;;;;;;;0.67;0.67;;;18.40;99.90;;;;;;5110354;28;20483;-66
2022/09/05 07:35:55;;;;;;;0.53;0.43;;;18.30;99.90;;;;;;5107190;28;20463;-66
2022/09/05 07:38:28;;;;;;;0.60;0.50;;;18.30;99.90;;;;;;5113840;28;20916;-66
2022/09/05 07:41:23;;;;;;;0.50;0.40;;;18.20;99.90;;;;;;5104991;28;20432;-66
2022/09/05 07:43:57;;;;;;;1.03;0.60;;;18.20;99.90;;;;;;5116223;28;20488;-66
2022/09/05 07:46:32;;;;;;;0.40;0.30;;;18.10;99.90;;;;;;5107646;28;20433;-66
2022/09/05 07:49:07;;;;;;;1.37;0.60;;;18.10;99.90;;;;;;5114281;28;20461;-66
2022/09/05 07:51:47;;;;;;;0.47;0.47;;;18.10;99.90;;;;;;5108701;28;20458;-66
2022/09/05 07:54:41;;;;;;;0.60;0.60;;;18.00;99.90;;;;;;5115424;28;20508;-66
2022/09/05 07:57:40;;;;;;;0.50;0.50;;;18.00;99.90;;;;;;5113435;28;20462;-66
2022/09/05 08:00:22;;;;;;;0.97;0.80;;;17.90;99.90;;;;;;5118293;28;20508;-66
2022/09/05 08:02:56;;;;;;;0.60;0.60;;;17.90;99.90;;;;;;5099838;28;20510;-66
2022/09/05 08:05:36;;;;;;;0.50;0.50;;;17.90;99.90;;;;;;5104442;28;20490;-66
2022/09/05 08:08:12;;;;;;;0.50;0.40;;;17.80;99.90;;;;;;5115823;28;20428;-66
2022/09/05 08:10:49;;;;;;;0.97;0.70;;;17.70;99.90;;;;;;5099141;28;20497;-66
2022/09/05 08:13:55;;;;;;;0.60;0.60;;;17.70;99.90;;;;;;5104223;28;20790;-66
2022/09/05 08:16:46;;;;;;;0.50;0.40;;;17.70;99.90;;;;;;5116213;28;21215;-66
2022/09/05 08:19:43;;;;;;;0.50;0.50;;;17.70;99.90;;;;;;5117176;28;20462;-67
2022/09/05 08:22:22;;;;;;;0.47;0.40;;;17.70;99.90;;;;;;5103209;28;20463;-66
2022/09/05 08:25:03;;;;;;;0.80;0.70;;;17.70;99.90;;;;;;5110625;28;20488;-66
2022/09/05 08:27:45;;;;;;;0.50;0.40;;;17.50;99.90;;;;;;5097703;28;20566;-66
2022/09/05 08:30:16;;;;;;;0.60;0.53;;;17.50;99.90;;;;;;5122427;28;20493;-66
2022/09/05 08:33:02;;;;;;;0.83;0.67;;;17.50;99.90;;;;;;5124852;28;20461;-67
2022/09/05 08:35:45;;;;;;;0.53;0.50;;;17.50;99.90;;;;;;5124851;28;20442;-67
2022/09/05 08:38:17;;;;;;;0.50;0.43;;;17.40;99.90;;;;;;5125318;28;20541;-67
2022/09/05 08:40:56;;;;;;;0.50;0.50;;;17.40;99.90;;;;;;5122214;28;20495;-67
2022/09/05 08:43:34;;;;;;;0.50;0.50;;;17.30;99.90;;;;;;5113881;28;20488;-67
2022/09/05 08:46:30;;;;;;;0.53;0.50;;;17.30;99.90;;;;;;5104866;28;20457;-67
2022/09/05 08:49:36;;;;;;;0.63;0.50;;;17.30;99.90;;;;;;5118580;28;20473;-67
2022/09/05 08:52:19;;;;;;;0.90;0.70;;;17.20;99.90;;;;;;5099157;28;20450;-67
2022/09/05 08:55:03;;;;;;;0.70;0.70;;;17.10;99.90;;;;;;5124678;28;20434;-67
2022/09/05 08:58:26;;;;;;;0.70;0.47;;;17.10;99.90;;;;;;5123755;28;20468;-67
2022/09/05 09:01:06;;;;;;;0.60;0.60;;;17.10;99.90;;;;;;5020280;28;20508;-67
2022/09/05 09:03:59;;;;;;;0.67;0.50;;;17.00;99.90;;;;;;5039299;28;20453;-67
2022/09/05 09:06:57;;;;;;;0.60;0.50;;;16.90;99.90;;;;;;5040376;28;20561;-66
2022/09/05 09:09:56;;;;;;;0.60;0.60;;;16.90;99.90;;;;;;5041036;28;20452;-66
2022/09/05 09:13:08;;;;;;;0.67;0.67;;;16.90;99.90;;;;;;5040679;28;20977;-67
2022/09/05 09:15:45;;;;;;;0.47;0.47;;;16.90;99.90;;;;;;5015371;28;20467;-66
2022/09/05 09:18:17;;;;;;;1.37;1.00;;;16.70;99.90;;;;;;5039388;28;20457;-66
2022/09/05 09:20:53;;;;;;;0.40;0.40;;;16.70;99.90;;;;;;5040716;28;20441;-66
2022/09/05 09:23:45;;;;;;;0.70;0.70;;;16.70;99.90;;;;;;5041153;28;20789;-66
2022/09/05 09:26:17;;;;;;;0.60;0.47;;;16.70;99.90;;;;;;5040736;28;20427;-67
2022/09/05 09:29:01;;;;;;;0.63;0.43;;;16.60;99.90;;;;;;5040537;28;20456;-67
2022/09/05 09:31:51;;;;;;;0.90;0.70;;;16.60;99.90;;;;;;5080437;28;20459;-66
2022/09/05 09:34:45;;;;;;;0.70;0.50;;;16.60;99.90;;;;;;5107096;28;20546;-66
2022/09/05 09:37:47;;;;;;;0.70;0.63;;;16.60;99.90;;;;;;5092748;28;20453;-66
2022/09/05 09:40:30;;;;;;;0.50;0.40;;;16.60;99.90;;;;;;5115410;28;20473;-66
2022/09/05 09:43:07;;;;;;;0.73;0.70;;;16.50;99.90;;;;;;5123284;28;20457;-67
2022/09/05 09:45:53;;;;;;;0.90;0.77;;;16.50;99.90;;;;;;5123768;28;20433;-67
2022/09/05 09:49:03;;;;;;;0.60;0.60;;;16.50;99.90;;;;;;5123801;28;20420;-66
2022/09/05 09:52:13;;;;;;;0.90;0.90;;;16.40;99.90;;;;;;5105806;28;20556;-66
2022/09/05 09:55:39;;;;;;;0.50;0.50;;;16.40;99.90;;;;;;5123789;28;20413;-67
2022/09/05 09:58:45;;;;;;;0.57;0.57;;;16.30;99.90;;;;;;5123282;28;20762;-67
2022/09/05 10:01:27;;;;;;;0.70;0.70;;;16.30;99.90;;;;;;5123095;28;20452;-67
2022/09/05 10:04:22;;;;;;;0.50;0.43;;;16.30;99.90;;;;;;5123472;28;20450;-66
2022/09/05 10:07:35;;;;;;;1.10;0.40;;;16.30;99.90;;;;;;5122273;28;21747;-66
2022/09/05 10:11:07;;;;;;;0.63;0.50;;;16.20;99.90;;;;;;5106176;28;20477;-66
2022/09/05 10:14:32;;;;;;;0.60;0.60;;;16.20;99.90;;;;;;5117265;28;20470;-66
2022/09/05 10:17:51;;;;;;;0.47;0.47;;;16.10;99.90;;;;;;5123019;28;20422;-66
2022/09/05 10:20:47;;;;;;;0.67;0.67;;;16.00;99.90;;;;;;5123572;28;20524;-67
2022/09/05 10:24:01;;;;;;;1.07;0.60;;;16.00;99.90;;;;;;5123342;28;20466;-66
2022/09/05 10:27:03;;;;;;;1.07;1.00;;;16.00;99.90;;;;;;5100787;28;20434;-66
2022/09/05 10:29:46;;;;;;;0.60;0.60;;;15.80;99.90;;;;;;5121406;28;20420;-66
2022/09/05 10:32:25;;;;;;;1.07;0.60;;;15.80;99.90;;;;;;5123094;28;20488;-66
2022/09/05 10:35:27;;;;;;;0.80;0.80;;;15.80;99.90;;;;;;5123274;28;20441;-66
2022/09/05 10:38:03;;;;;;;0.67;0.60;;;15.80;99.90;;;;;;5121893;28;20450;-66
2022/09/05 10:40:44;;;;;;;0.60;0.57;;;15.70;99.90;;;;;;5123111;28;20461;-66
2022/09/05 10:43:43;;;;;;;0.60;0.60;;;15.60;99.90;;;;;;5114301;28;20473;-66
2022/09/05 10:46:27;;;;;;;0.50;0.40;;;15.60;99.90;;;;;;5122815;28;20442;-66
2022/09/05 10:49:24;;;;;;;0.70;0.60;;;15.50;99.90;;;;;;5123402;28;20441;-66
2022/09/05 10:52:03;;;;;;;0.60;0.60;;;15.40;99.90;;;;;;5122751;28;20485;-66
2022/09/05 10:55:07;;;;;;;0.77;0.77;;;15.40;99.90;;;;;;5123007;28;20460;-66
2022/09/05 10:57:58;;;;;;;0.63;0.50;;;15.40;99.90;;;;;;5122761;28;20518;-66
2022/09/05 11:00:54;;;;;;;0.80;0.63;;;15.40;99.90;;;;;;5093917;28;20482;-67
2022/09/05 11:03:50;;;;;;;1.23;1.10;;;15.30;99.90;;;;;;5122940;28;20445;-66
2022/09/05 11:06:29;;;;;;;0.87;0.87;;;15.20;99.90;;;;;;5122102;28;20517;-66
2022/09/05 11:09:08;;;;;;;0.70;0.70;;;15.20;99.90;;;;;;5122758;28;20443;-66
2022/09/05 11:11:49;;;;;;;0.90;0.70;;;15.20;99.90;;;;;;5122705;28;20510;-66
2022/09/05 11:14:45;;;;;;;1.03;0.70;;;15.20;99.90;;;;;;5122560;28;20897;-66
2022/09/05 11:17:27;;;;;;;0.83;0.70;;;15.20;99.90;;;;;;5107867;28;20472;-66
2022/09/05 11:20:41;;;;;;;0.77;0.77;;;15.10;99.90;;;;;;5122709;28;20442;-67
2022/09/05 11:23:15;;;;;;;0.60;0.60;;;15.10;99.90;;;;;;5105896;28;20464;-66
2022/09/05 11:25:47;;;;;;;0.60;0.60;;;15.00;99.90;;;;;;5126605;27;20441;-66
2022/09/05 11:28:22;;;;;;;0.80;0.80;;;15.00;99.90;;;;;;5125962;28;20449;-66
2022/09/05 11:30:57;;;;;;;0.80;0.80;;;15.00;99.90;;;;;;5093241;28;20472;-66
2022/09/05 11:33:58;;;;;;;0.80;0.80;;;14.90;99.90;;;;;;5124886;28;20496;-66
2022/09/05 11:36:51;;;;;;;0.90;0.73;;;14.90;99.90;;;;;;5125355;28;20491;-66
2022/09/05 11:40:22;;;;;;;0.70;0.50;;;14.80;99.90;;;;;;5120676;28;20511;-66
2022/09/05 11:43:45;;;;;;;1.13;0.60;;;14.80;99.90;;;;;;5125642;28;20517;-66
2022/09/05 11:46:28;;;;;;;0.70;0.50;;;14.90;99.90;;;;;;5125775;28;20442;-66
2022/09/05 11:49:56;;;;;;;0.70;0.70;;;14.90;99.90;;;;;;5125478;28;20465;-66
2022/09/05 11:53:09;;;;;;;1.20;1.10;;;14.80;99.90;;;;;;5032147;28;20499;-66
2022/09/05 11:56:17;;;;;;;0.83;0.83;;;14.80;99.90;;;;;;4983883;28;20817;-66
2022/09/05 11:59:11;;;;;;;0.97;0.83;;;14.80;99.90;;;;;;4983175;28;20460;-66
2022/09/05 12:01:55;;;;;;;0.70;0.70;;;14.70;99.90;;;;;;4960205;28;20479;-66
2022/09/05 12:04:57;;;;;;;0.77;0.63;;;14.70;99.90;;;;;;4983705;28;20440;-66
2022/09/05 12:08:03;;;;;;;0.90;0.90;;;14.60;99.90;;;;;;4963277;28;20448;-66
2022/09/05 12:10:50;;;;;;;0.70;0.70;;;14.60;99.90;;;;;;4982940;28;21330;-66
2022/09/05 12:13:35;;;;;;;0.83;0.83;;;14.60;99.90;;;;;;4952574;28;20523;-65
2022/09/05 12:16:26;;;;;;;0.63;0.60;;;14.50;99.90;;;;;;4982982;28;20459;-66
2022/09/05 12:19:21;;;;;;;0.70;0.67;;;14.50;99.90;;;;;;4983126;28;20448;-66
2022/09/05 12:22:22;;;;;;;0.73;0.73;;;14.40;99.90;;;;;;4985422;28;20452;-66
2022/09/05 12:25:29;;;;;;;0.90;0.90;;;14.40;99.90;;;;;;5057912;28;20619;-67
2022/09/05 12:28:29;;;;;;;0.70;0.70;;;14.40;99.90;;;;;;5033044;28;20575;-67
2022/09/05 12:31:27;;;;;;;1.13;0.93;;;14.40;99.90;;;;;;5088446;28;20491;-66
2022/09/05 12:34:49;;;;;;;0.90;0.80;;;14.40;99.90;;;;;;5124914;28;20475;-66
2022/09/05 12:37:51;;;;;;;0.90;0.70;;;14.30;99.90;;;;;;5124312;28;20495;-66
2022/09/05 12:40:48;;;;;;;0.60;0.57;;;14.20;99.90;;;;;;5093710;28;20451;-67
2022/09/05 12:43:46;;;;;;;0.90;0.90;;;14.20;99.90;;;;;;5114599;28;20518;-66
2022/09/05 12:46:50;;;;;;;5.03;0.73;;;14.20;99.90;;;;;;5124647;28;20433;-66
2022/09/05 12:49:34;;;;;;;0.80;0.80;;;14.20;99.90;;;;;;5124434;28;20480;-66
2022/09/05 12:52:11;;;;;;;0.83;0.83;;;14.10;99.90;;;;;;5123945;28;20485;-66
2022/09/05 12:54:49;;;;;;;0.93;0.90;;;14.10;99.90;;;;;;5124909;28;20465;-66
2022/09/05 12:57:29;;;;;;;0.70;0.70;;;14.00;99.90;;;;;;5123534;28;20458;-66
2022/09/05 13:00:22;;;;;;;1.13;0.90;;;14.00;99.90;;;;;;5118958;28;20472;-66
2022/09/05 13:03:22;;;;;;;0.70;0.70;;;14.00;99.90;;;;;;5124685;28;20438;-66
2022/09/05 13:06:20;;;;;;;0.60;0.60;;;13.90;99.90;;;;;;5123708;28;20471;-66
2022/09/05 13:09:02;;;;;;;1.00;0.80;;;13.80;99.90;;;;;;5124430;28;20442;-66
2022/09/05 13:11:44;;;;;;;1.40;0.90;;;13.80;99.90;;;;;;5124254;28;20956;-66
2022/09/05 13:14:46;;;;;;;1.53;1.43;;;13.80;99.90;;;;;;5120513;28;20548;-66
2022/09/05 13:17:42;;;;;;;0.93;0.93;;;13.70;99.90;;;;;;5107944;28;20442;-67
2022/09/05 13:20:19;;;;;;;1.10;1.00;;;13.70;99.90;;;;;;5123956;28;20453;-67
2022/09/05 13:22:53;;;;;;;0.70;0.70;;;13.70;99.90;;;;;;5092503;28;20449;-66
2022/09/05 13:25:27;;;;;;;2.03;0.87;;;13.60;99.90;;;;;;5124166;28;20469;-66
2022/09/05 13:28:05;;;;;;;1.10;1.00;;;13.60;99.90;;;;;;5123997;28;20446;-67
2022/09/05 13:30:39;;;;;;;0.63;0.63;;;13.60;99.90;;;;;;5124150;28;20460;-67
2022/09/05 13:33:43;;;;;;;0.80;0.80;;;13.70;99.90;;;;;;5106951;28;20481;-67
2022/09/05 13:36:37;;;;;;;0.90;0.90;;;13.70;99.90;;;;;;5123516;28;20438;-66
2022/09/05 13:39:42;;;;;;;1.20;0.80;;;13.70;99.90;;;;;;5120114;28;20458;-67
2022/09/05 13:42:18;;;;;;;1.10;0.87;;;13.60;99.90;;;;;;5123892;28;20479;-67
2022/09/05 13:44:53;;;;;;;0.90;0.90;;;13.50;99.90;;;;;;5122400;28;20485;-67
2022/09/05 13:47:49;;;;;;;0.80;0.80;;;13.40;99.90;;;;;;5123724;28;20452;-67
2022/09/05 13:50:26;;;;;;;1.00;0.90;;;13.40;99.90;;;;;;5120382;28;20462;-67
2022/09/05 13:53:03;;;;;;;0.80;0.80;;;13.30;99.90;;;;;;5122777;28;20825;-67
2022/09/05 13:55:41;;;;;;;4.87;1.20;;;13.30;99.90;;;;;;5123893;28;20441;-67
2022/09/05 13:58:24;;;;;;;1.17;1.07;;;13.40;99.90;;;;;;5124080;28;20889;-66
2022/09/05 14:01:34;;;;;;;1.23;0.90;;;13.40;99.90;;;;;;5123480;28;20492;-66
2022/09/05 14:04:47;;;;;;;1.27;0.97;;;13.40;99.90;;;;;;5027772;28;20449;-66
2022/09/05 14:08:19;;;;;;;0.90;0.90;;;13.40;99.90;;;;;;5007059;28;20480;-66
2022/09/05 14:11:12;;;;;;;1.30;1.03;;;13.40;99.90;;;;;;5039069;28;20837;-67
2022/09/05 14:14:07;;;;;;;1.07;0.90;;;13.50;99.90;;;;;;5013557;28;20505;-67
2022/09/05 14:16:46;;;;;;;1.30;1.20;;;13.40;99.90;;;;;;5036057;28;20441;-66
2022/09/05 14:22:16;;;;;;;0.90;0.67;;;13.60;99.90;;;;;;5039537;28;20576;-67
2022/09/05 14:24:51;;;;;;;1.90;1.33;;;13.80;99.90;;;;;;5012049;28;20449;-67
2022/09/05 14:27:30;;;;;;;1.17;1.07;;;13.80;99.90;;;;;;5040194;28;20445;-67
2022/09/05 14:30:04;;;;;;;1.23;1.13;;;13.80;99.90;;;;;;5036993;28;20457;-66
2022/09/05 14:33:14;;;;;;;0.90;0.90;;;13.80;99.90;;;;;;5011179;28;20473;-66
2022/09/05 14:36:13;;;;;;;1.03;0.93;;;13.80;99.90;;;;;;5039517;28;20480;-67
2022/09/05 14:39:38;;;;;;;0.87;0.87;;;13.80;99.90;;;;;;5060595;28;20441;-66
2022/09/05 14:42:33;;;;;;;0.73;0.73;;;13.80;99.90;;;;;;5111155;28;20506;-66
2022/09/05 14:45:32;;;;;;;0.83;0.83;;;13.80;99.90;;;;;;5122921;28;20503;-66
2022/09/05 14:48:32;;;;;;;1.33;0.97;;;13.80;99.90;;;;;;5122771;28;20464;-66
2022/09/05 14:51:16;;;;;;;1.07;1.00;;;13.90;99.90;;;;;;5120457;28;20468;-66
2022/09/05 14:54:13;;;;;;;1.00;0.90;;;14.00;99.90;;;;;;5122935;28;20534;-66
2022/09/05 14:57:06;;;;;;;0.83;0.83;;;14.10;99.90;;;;;;5094817;28;20450;-66
2022/09/05 14:59:59;;;;;;;0.70;0.70;;;14.20;99.90;;;;;;5114370;28;20515;-66
2022/09/05 15:02:54;;;;;;;0.70;0.63;;;14.30;99.90;;;;;;5107153;28;20502;-66